Latest Weather Observations for Amberley

IDQ60901

Issued at 10:05 pm EST Sunday 21 September 2014 (issued every 10 minutes, with the page automatically refreshed every 10 minutes)

About weather observations | Map of Brisbane area stations | Latest observations for Brisbane area | Other Formats
Station Details ID: 040004 Name: AMBERLEY AMO Lat: -27.63 Lon: 152.71 Height: 24.2 m
Data from the previous 72 hours. | See also: Recent months at Amberley
Date/Time
EST
Tmp

°C
App
Tmp
°C
Dew
Point
°C
Rel
Hum
%
Delta-T

°C
Wind Press
QNH
hPa
Press
MSL
hPa
Rain
since
9 am
mm
Dir
 
Spd
km/h
Gust
km/h
Spd
kts
Gust
kts
21/10:00pm 15.8 12.7 11.7 76 2.2 SSE 19 26 10 14 1027.8 - 0.0
21/09:30pm 16.5 12.7 11.1 70 2.9 SE 22 33 12 18 1027.6 - 0.0
21/09:00pm 17.7 14.6 10.3 62 3.9 SE 17 26 9 14 1027.5 1027.4 0.0
21/08:30pm 17.6 15.9 11.1 65 3.5 ESE 11 15 6 8 1027.5 - 0.0
21/08:00pm 17.8 14.9 10.9 64 3.7 E 17 24 9 13 1027.2 - 0.0
21/07:30pm 17.9 14.3 10.6 62 3.9 E 20 30 11 16 1026.9 - 0.0
21/07:00pm 18.1 14.8 9.7 58 4.4 E 17 26 9 14 1026.3 - 0.0
21/06:30pm 18.5 14.9 10.0 57 4.5 E 19 30 10 16 1025.8 - 0.0
21/06:00pm 18.8 15.1 9.5 54 4.9 E 19 28 10 15 1025.2 1025.1 0.0
21/05:30pm 19.5 14.6 8.5 49 5.7 E 24 33 13 18 1024.7 - 0.0
21/05:00pm 19.5 15.7 9.7 53 5.2 E 20 30 11 16 1024.3 - 0.0
21/04:30pm 20.4 14.2 9.2 48 5.9 E 32 41 17 22 1023.8 - 0.0
21/04:00pm 20.9 15.3 8.9 46 6.3 ENE 28 37 15 20 1023.3 - 0.0
21/03:30pm 22.3 17.3 8.2 40 7.4 E 24 35 13 19 1023.1 - 0.0
21/03:00pm 22.2 16.2 7.2 38 7.7 E 28 37 15 20 1023.1 1023.1 0.0
21/02:30pm 23.1 17.2 7.3 36 8.2 E 28 37 15 20 1023.0 - 0.0
21/02:00pm 23.7 18.8 8.4 37 8.1 ESE 24 30 13 16 1023.0 - 0.0
21/01:30pm 23.0 17.6 7.9 38 7.9 E 26 37 14 20 1023.2 - 0.0
21/01:00pm 21.9 16.9 8.1 41 7.2 ENE 24 33 13 18 1023.7 - 0.0
21/12:30pm 22.8 18.0 7.3 37 8.0 E 22 32 12 17 1024.0 - 0.0
21/12:00pm 21.3 17.3 8.3 43 6.8 E 19 30 10 16 1024.8 1024.7 0.0
21/11:30am 22.3 18.5 7.4 38 7.7 E 17 24 9 13 1025.0 - 0.0
21/11:00am 22.1 18.6 8.6 42 7.1 SE 17 26 9 14 1025.4 - 0.0
21/10:30am 21.9 18.2 7.8 40 7.3 ESE 17 30 9 16 1025.9 - 0.0
21/10:00am 21.5 16.9 8.0 42 7.0 E 22 32 12 17 1026.1 - 0.0
21/09:30am 21.3 18.2 8.7 44 6.7 SE 15 24 8 13 1026.5 - 0.0
21/09:00am 19.9 17.9 8.5 47 5.9 SE 9 17 5 9 1026.7 1026.6 0.0
21/08:30am 19.5 16.7 8.7 49 5.6 SSE 13 19 7 10 1026.8 - 0.0
21/08:00am 17.1 15.3 9.6 61 3.9 S 9 15 5 8 1026.7 - 0.0
21/07:30am 14.7 14.5 10.3 75 2.3 S 2 7 1 4 1026.3 - 0.0
21/07:00am 12.4 12.3 9.4 82 1.5 CALM 0 0 0 0 1026.3 - 0.0
21/06:30am 10.0 9.6 8.3 89 0.8 CALM 0 4 0 2 1025.7 - 0.0
21/06:00am 8.1 5.3 7.0 93 0.5 S 11 13 6 7 1025.5 1025.4 0.0
21/05:30am 10.5 10.1 8.4 87 1.0 CALM 0 0 0 0 1025.0 - 0.0
21/05:00am 9.9 8.2 8.5 91 0.7 SSW 7 9 4 5 1025.1 - 0.0
21/04:30am 10.1 9.4 8.7 91 0.7 SSW 2 6 1 3 1024.7 - 0.0
21/04:00am 8.5 6.8 7.4 93 0.5 SSW 6 9 3 5 1024.5 - 0.0
21/03:30am 8.7 7.7 7.4 91 0.6 SSW 2 9 1 5 1024.4 - 0.0
21/03:00am 10.3 8.0 9.1 92 0.6 SSW 11 13 6 7 1024.1 1024.1 0.0
21/02:30am 10.4 8.5 9.2 92 0.6 SSW 9 11 5 6 1024.4 - 0.0
21/02:00am 10.5 9.2 9.3 92 0.6 S 6 7 3 4 1024.7 - 0.0
21/01:30am 9.3 8.9 8.3 93 0.5 CALM 0 0 0 0 1025.1 - 0.0
21/01:00am 9.5 9.0 8.0 90 0.7 CALM 0 4 0 2 1025.2 - 0.0
21/12:30am 12.0 10.9 10.0 87 1.0 S 6 7 3 4 1025.1 - 0.0
21/12:00am 12.4 10.3 9.8 84 1.3 SSW 11 13 6 7 1025.0 1024.9 0.0
 
Date/Time
EST
Tmp

°C
App
Tmp
°C
Dew
Point
°C
Rel
Hum
%
Delta-T

°C
Wind Press
QNH
hPa
Press
MSL
hPa
Rain
since
9 am
mm
Dir
 
Spd
km/h
Gust
km/h
Spd
kts
Gust
kts
20/11:30pm 11.9 11.3 9.1 83 1.4 SSW 2 7 1 4 1025.0 - 0.0
20/11:00pm 13.1 11.8 9.3 78 1.9 SSW 6 7 3 4 1024.8 - 0.0
20/10:30pm 14.5 12.3 9.2 70 2.7 S 11 13 6 7 1024.7 - 0.0
20/10:00pm 13.6 12.0 8.6 72 2.5 SE 7 9 4 5 1024.6 - 0.0
20/09:30pm 15.0 13.3 9.8 71 2.7 SE 9 11 5 6 1024.6 - 0.0
20/09:00pm 16.8 15.1 9.7 63 3.7 SE 9 15 5 8 1024.5 1024.4 0.0
20/08:30pm 17.8 15.3 9.6 58 4.3 ESE 13 19 7 10 1024.1 - 0.0
20/08:00pm 18.3 15.7 9.5 56 4.6 SE 13 19 7 10 1023.6 - 0.0
20/07:30pm 18.3 14.7 10.0 58 4.4 E 19 32 10 17 1022.9 - 0.0
20/07:00pm 18.4 14.8 9.9 57 4.5 E 19 26 10 14 1022.4 - 0.0
20/06:30pm 18.8 13.5 9.7 55 4.8 E 28 39 15 21 1021.8 - 0.0
20/06:00pm 19.0 13.6 9.5 54 5.0 ENE 28 37 15 20 1021.3 1021.3 0.0
20/05:30pm 19.4 13.9 9.3 52 5.3 ENE 28 43 15 23 1020.4 - 0.0
20/05:00pm 20.3 14.2 9.6 50 5.7 ENE 32 39 17 21 1019.4 - 0.0
20/04:30pm 21.2 15.9 9.9 48 6.1 E 28 37 15 20 1018.9 - 0.0
20/04:00pm 21.7 15.5 9.4 45 6.6 E 32 39 17 21 1018.3 - 0.0
20/03:30pm 22.8 17.5 9.9 44 7.0 E 28 37 15 20 1018.1 - 0.0
20/03:00pm 23.0 18.2 10.2 44 7.0 E 26 33 14 18 1017.8 1017.7 0.0
20/02:30pm 23.3 18.6 10.6 44 7.0 E 26 32 14 17 1017.9 - 0.0
20/02:00pm 23.0 17.8 10.4 45 6.9 E 28 37 15 20 1017.9 - 0.0
20/01:30pm 25.1 20.5 9.8 38 8.4 E 24 32 13 17 1017.9 - 0.0
20/01:00pm 24.4 21.4 7.7 34 8.8 NE 13 22 7 12 1018.4 - 0.0
20/12:30pm 24.1 22.0 9.8 40 7.8 E 11 17 6 9 1018.8 - 0.0
20/12:00pm 23.6 21.6 10.1 42 7.4 ESE 11 19 6 10 1019.4 1019.3 0.0
20/11:30am 23.3 21.8 10.4 44 7.1 SSE 9 17 5 9 1019.9 - 0.0
20/11:00am 23.0 20.8 10.9 46 6.7 E 13 17 7 9 1020.4 - 0.0
20/10:30am 22.1 20.2 11.7 51 5.8 ENE 13 19 7 10 1020.9 - 0.0
20/10:00am 21.3 20.3 12.2 56 5.1 E 9 15 5 8 1021.4 - 0.0
20/09:30am 20.2 19.6 12.3 60 4.4 S 7 11 4 6 1021.7 - 0.0
20/09:00am 18.5 18.4 12.2 66 3.5 ESE 4 9 2 5 1021.9 1021.9 0.0
20/08:30am 17.1 16.5 11.8 71 2.9 SW 6 9 3 5 1021.9 - 0.0
20/08:00am 15.6 14.4 11.5 76 2.2 SW 9 11 5 6 1021.8 - 0.0
20/07:30am 13.9 14.1 10.6 80 1.7 CALM 0 7 0 4 1021.4 - 0.0
20/07:00am 12.4 12.6 10.5 88 1.0 CALM 0 0 0 0 1021.0 - 0.0
20/06:30am 10.5 10.4 9.5 93 0.5 CALM 0 7 0 4 1020.5 - 0.0
20/06:00am 9.7 9.4 8.7 93 0.5 CALM 0 0 0 0 1020.2 1020.1 0.0
20/05:30am 9.5 9.2 8.7 95 0.4 CALM 0 0 0 0 1019.6 - 0.0
20/05:00am 9.7 9.5 8.9 95 0.4 CALM 0 0 0 0 1019.1 - 0.0
20/04:30am 9.5 9.2 8.5 93 0.5 CALM 0 0 0 0 1018.8 - 0.0
20/04:00am 9.5 7.9 8.7 95 0.4 NW 7 9 4 5 1018.5 - 0.0
20/03:30am 9.1 8.3 8.3 95 0.4 WNW 2 7 1 4 1018.4 - 0.0
20/03:00am 8.9 8.1 8.3 96 0.3 NW 2 9 1 5 1018.5 1018.4 0.0
20/02:30am 9.3 9.0 8.5 95 0.4 CALM 0 0 0 0 1018.6 - 0.0
20/02:00am 9.7 9.5 9.1 96 0.3 CALM 0 0 0 0 1018.8 - 0.0
20/01:30am 10.0 9.8 9.2 95 0.4 CALM 0 0 0 0 1018.9 - 0.0
20/01:00am 10.3 9.8 9.3 93 0.5 NW 2 6 1 3 1018.9 - 0.0
20/12:30am 10.2 8.2 8.8 91 0.7 NNW 9 11 5 6 1019.2 - 0.0
20/12:00am 11.7 11.7 9.9 89 0.9 CALM 0 0 0 0 1019.2 1019.1 0.0
 
Date/Time
EST
Tmp

°C
App
Tmp
°C
Dew
Point
°C
Rel
Hum
%
Delta-T

°C
Wind Press
QNH
hPa
Press
MSL
hPa
Rain
since
9 am
mm
Dir
 
Spd
km/h
Gust
km/h
Spd
kts
Gust
kts
19/11:30pm 12.1 12.1 9.7 85 1.2 CALM 0 0 0 0 1019.3 - 0.0
19/11:00pm 12.4 12.0 9.8 84 1.3 NW 2 7 1 4 1019.3 - 0.0
19/10:30pm 11.9 10.6 9.9 87 1.0 NNW 7 7 4 4 1019.3 - 0.0
19/10:00pm 12.6 12.4 10.3 86 1.2 E 2 9 1 5 1019.3 - 0.0
19/09:30pm 13.9 12.8 10.7 81 1.7 E 7 11 4 6 1019.3 - 0.0
19/09:00pm 16.2 15.2 12.2 77 2.2 E 9 9 5 5 1019.2 1019.1 0.0
19/08:30pm 16.8 15.8 12.2 74 2.5 ENE 9 11 5 6 1019.0 - 0.0
19/08:00pm 17.7 17.0 12.1 69 3.1 ENE 7 11 4 6 1018.7 - 0.0
19/07:30pm 18.8 16.1 11.7 63 3.9 ENE 17 22 9 12 1018.1 - 0.0
19/07:00pm 19.2 15.8 11.1 59 4.4 ENE 20 28 11 15 1017.7 - 0.0
19/06:30pm 19.7 15.9 9.8 52 5.3 ENE 20 26 11 14 1017.2 - 0.0
19/06:00pm 20.2 15.8 9.0 48 5.9 ENE 22 30 12 16 1016.8 1016.7 0.0
19/05:30pm 21.3 16.2 7.8 41 7.0 ENE 24 30 13 16 1016.3 - 0.0
19/05:00pm 22.2 17.5 7.8 39 7.5 ENE 22 30 12 16 1015.7 - 0.0
19/04:30pm 24.5 18.4 -3.9 15 12.1 ENE 19 22 10 12 1015.4 - 0.0
19/04:00pm 26.1 21.9 -4.1 13 13.0 N 9 17 5 9 1015.2 - 0.0
19/03:30pm 26.8 23.1 -2.7 14 13.1 NNE 7 15 4 8 1015.2 - 0.0
19/03:00pm 26.2 22.6 -2.4 15 12.7 W 7 19 4 10 1015.5 1015.4 0.0
19/02:30pm 25.7 21.8 -1.8 16 12.3 SSE 9 17 5 9 1015.9 - 0.0
19/02:00pm 25.2 20.8 -2.1 16 12.1 W 11 17 6 9 1016.4 - 0.0
19/01:30pm 25.4 21.3 -0.3 18 11.8 NNE 11 19 6 10 1016.8 - 0.0
19/01:00pm 25.5 21.5 -2.3 16 12.3 NW 9 15 5 8 1017.4 - 0.0
19/12:30pm 25.0 21.1 -1.8 17 11.9 WNW 9 20 5 11 1018.3 - 0.0
19/12:00pm 23.3 19.5 3.8 28 9.5 NNW 13 19 7 10 1018.7 1018.6 0.0
19/11:30am 23.3 20.4 4.4 29 9.3 NW 9 19 5 10 1019.4 - 0.0
19/11:00am 22.3 19.5 6.9 37 7.9 NNW 11 20 6 11 1020.0 - 0.0
19/10:30am 21.8 19.5 7.5 39 7.4 WSW 9 17 5 9 1020.6 - 0.0
19/10:00am 20.4 18.2 7.8 44 6.5 W 9 13 5 7 1021.1 - 0.0
19/09:30am 18.8 16.9 7.6 48 5.7 E 7 11 4 6 1021.4 - 0.0
19/09:00am 17.9 15.9 7.1 49 5.4 NNW 7 13 4 7 1021.8 1021.8 0.0
19/08:30am 15.6 14.1 7.0 56 4.2 SW 4 7 2 4 1021.7 - 0.0
19/08:00am 14.3 13.9 8.1 66 3.1 CALM 0 0 0 0 1021.8 - 0.0
19/07:30am 11.6 11.1 7.7 77 1.9 CALM 0 0 0 0 1021.7 - 0.0
19/07:00am 9.4 8.7 6.8 84 1.2 CALM 0 0 0 0 1021.5 - 0.0
19/06:30am 6.7 5.7 5.8 94 0.4 CALM 0 0 0 0 1020.9 - 0.0
19/06:00am 4.2 2.7 3.0 92 0.5 CALM 0 0 0 0 1020.6 1020.6 0.0
19/05:43am 4.2 2.8 3.7 97 0.2 CALM 0 0 0 0 1020.6 - 0.0
19/05:30am 4.7 3.3 3.7 93 0.4 CALM 0 0 0 0 1020.5 - 0.0
19/05:00am 5.0 3.7 4.0 93 0.4 CALM 0 0 0 0 1020.3 - 0.0
19/04:42am 5.4 4.2 4.5 94 0.4 CALM 0 0 0 0 1019.8 - 0.0
19/04:30am 5.5 4.3 4.8 95 0.3 CALM 0 0 0 0 1019.9 - 0.0
19/04:21am 5.0 3.7 4.3 95 0.3 CALM 0 0 0 0 1019.7 - 0.0
19/04:00am 5.6 4.5 4.9 95 0.3 CALM 0 0 0 0 1019.5 - 0.0
19/03:30am 6.4 5.3 5.3 93 0.5 CALM 0 0 0 0 1019.0 - 0.0
19/03:29am 6.4 5.3 5.3 93 0.5 CALM 0 0 0 0 1019.0 - 0.0
19/03:10am 5.0 3.7 4.3 95 0.3 CALM 0 0 0 0 1019.2 - 0.0
19/03:00am 5.6 4.5 4.9 95 0.3 CALM 0 0 0 0 1019.2 1019.1 0.0
19/02:30am 6.4 5.3 5.0 91 0.6 CALM 0 0 0 0 1019.3 - 0.0
19/02:00am 6.3 5.3 5.6 95 0.3 CALM 0 0 0 0 1019.3 - 0.0
19/01:30am 7.7 6.9 6.4 91 0.6 CALM 0 6 0 3 1019.6 - 0.0
19/01:00am 7.9 5.7 6.1 88 0.8 NW 7 11 4 6 1019.5 - 0.0
19/12:30am 9.8 8.6 6.6 80 1.5 NW 2 6 1 3 1019.9 - 0.0
19/12:00am 8.7 7.5 6.3 85 1.1 E 2 9 1 5 1020.2 1020.1 0.0
 
Date/Time
EST
Tmp

°C
App
Tmp
°C
Dew
Point
°C
Rel
Hum
%
Delta-T

°C
Wind Press
QNH
hPa
Press
MSL
hPa
Rain
since
9 am
mm
Dir
 
Spd
km/h
Gust
km/h
Spd
kts
Gust
kts
18/11:30pm 10.5 9.8 6.9 78 1.7 CALM 0 0 0 0 1020.1 - 0.0
18/11:00pm 11.9 11.1 6.6 70 2.5 CALM 0 0 0 0 1020.0 - 0.0
18/10:30pm 10.8 10.1 6.8 76 1.9 CALM 0 0 0 0 1019.8 - 0.0

Latest Capital City Observations: Canberra | Sydney | Melbourne | Brisbane | Adelaide | Perth | Hobart | Darwin

Other Formats:

Comma delimited format used in spreadsheet applications
http://www.bom.gov.au/fwo/IDQ60901/IDQ60901.94568.axf

JavaScript Object Notation format (JSON) in row-major order
http://www.bom.gov.au/fwo/IDQ60901/IDQ60901.94568.json